sensor_id;sensor_type;location;lat;lon;timestamp;pressure;altitude;pressure_sealevel;temperature;humidity
43147;BME280;28752;48.266;7.402;2023-01-25T00:01:52;101034.06;;;2.15;95.60
43147;BME280;28752;48.266;7.402;2023-01-25T00:04:21;101042.84;;;2.12;96.09
43147;BME280;28752;48.266;7.402;2023-01-25T00:06:47;101030.50;;;2.17;95.92
43147;BME280;28752;48.266;7.402;2023-01-25T00:09:14;101036.56;;;2.18;95.96
43147;BME280;28752;48.266;7.402;2023-01-25T00:11:39;101027.97;;;2.14;95.52
43147;BME280;28752;48.266;7.402;2023-01-25T00:14:05;101016.88;;;2.07;95.91
43147;BME280;28752;48.266;7.402;2023-01-25T00:16:31;101027.97;;;2.14;95.68
43147;BME280;28752;48.266;7.402;2023-01-25T00:18:56;101031.28;;;2.19;95.61
43147;BME280;28752;48.266;7.402;2023-01-25T00:21:24;101031.50;;;2.13;95.61
43147;BME280;28752;48.266;7.402;2023-01-25T00:23:49;101027.19;;;2.12;95.68
43147;BME280;28752;48.266;7.402;2023-01-25T00:26:15;101011.44;;;2.13;95.34
43147;BME280;28752;48.266;7.402;2023-01-25T00:28:40;101024.56;;;2.12;95.30
43147;BME280;28752;48.266;7.402;2023-01-25T00:31:08;101018.53;;;2.10;95.70
43147;BME280;28752;48.266;7.402;2023-01-25T00:36:26;101017.56;;;2.12;95.50
43147;BME280;28752;48.266;7.402;2023-01-25T00:38:52;101005.53;;;2.08;95.55
43147;BME280;28752;48.266;7.402;2023-01-25T00:41:18;101013.84;;;2.20;95.23
43147;BME280;28752;48.266;7.402;2023-01-25T00:43:43;101009.63;;;2.16;95.50
43147;BME280;28752;48.266;7.402;2023-01-25T00:46:13;101005.22;;;2.18;94.97
43147;BME280;28752;48.266;7.402;2023-01-25T00:48:39;101000.94;;;2.15;95.40
43147;BME280;28752;48.266;7.402;2023-01-25T00:51:04;101001.78;;;2.16;95.36
43147;BME280;28752;48.266;7.402;2023-01-25T00:53:30;100994.09;;;2.11;95.37
43147;BME280;28752;48.266;7.402;2023-01-25T00:55:55;100992.19;;;2.16;95.18
43147;BME280;28752;48.266;7.402;2023-01-25T00:58:20;100986.97;;;2.16;95.02
43147;BME280;28752;48.266;7.402;2023-01-25T01:00:46;100981.31;;;2.03;95.43
43147;BME280;28752;48.266;7.402;2023-01-25T01:03:11;100987.13;;;2.11;94.95
43147;BME280;28752;48.266;7.402;2023-01-25T01:05:36;100995.50;;;2.21;95.05
43147;BME280;28752;48.266;7.402;2023-01-25T01:08:02;100990.69;;;2.09;95.32
43147;BME280;28752;48.266;7.402;2023-01-25T01:10:27;100989.63;;;2.15;95.01
43147;BME280;28752;48.266;7.402;2023-01-25T01:12:53;100987.25;;;2.08;94.90
43147;BME280;28752;48.266;7.402;2023-01-25T01:15:18;100987.19;;;2.10;95.06
43147;BME280;28752;48.266;7.402;2023-01-25T01:17:44;100998.22;;;2.18;94.72
43147;BME280;28752;48.266;7.402;2023-01-25T01:20:10;100995.72;;;2.15;94.41
43147;BME280;28752;48.266;7.402;2023-01-25T01:22:35;100978.41;;;2.11;94.46
43147;BME280;28752;48.266;7.402;2023-01-25T01:25:00;100985.38;;;2.12;94.91
43147;BME280;28752;48.266;7.402;2023-01-25T01:27:26;100986.09;;;2.16;94.24
43147;BME280;28752;48.266;7.402;2023-01-25T01:29:51;100989.81;;;2.10;94.79
43147;BME280;28752;48.266;7.402;2023-01-25T01:32:16;100989.81;;;2.10;94.99
43147;BME280;28752;48.266;7.402;2023-01-25T01:34:42;100986.47;;;2.05;94.80
43147;BME280;28752;48.266;7.402;2023-01-25T01:37:08;100986.22;;;2.12;94.29
43147;BME280;28752;48.266;7.402;2023-01-25T01:39:34;100999.22;;;2.14;94.48
43147;BME280;28752;48.266;7.402;2023-01-25T01:41:59;100982.22;;;2.02;94.60
43147;BME280;28752;48.266;7.402;2023-01-25T01:44:47;100983.81;;;2.06;95.06
43147;BME280;28752;48.266;7.402;2023-01-25T01:47:28;100985.63;;;2.04;94.94
43147;BME280;28752;48.266;7.402;2023-01-25T01:50:07;100976.25;;;1.99;95.04
43147;BME280;28752;48.266;7.402;2023-01-25T01:52:36;100983.88;;;2.05;94.85
43147;BME280;28752;48.266;7.402;2023-01-25T01:55:07;100980.72;;;1.95;95.46
43147;BME280;28752;48.266;7.402;2023-01-25T01:57:38;100989.19;;;2.02;95.36
43147;BME280;28752;48.266;7.402;2023-01-25T02:02:30;100982.56;;;1.93;95.18
43147;BME280;28752;48.266;7.402;2023-01-25T02:04:58;100991.59;;;2.08;95.06
43147;BME280;28752;48.266;7.402;2023-01-25T02:07:36;100993.41;;;2.06;95.17
43147;BME280;28752;48.266;7.402;2023-01-25T02:10:07;100992.63;;;2.04;95.00
43147;BME280;28752;48.266;7.402;2023-01-25T02:12:34;100992.41;;;2.10;95.03
43147;BME280;28752;48.266;7.402;2023-01-25T02:15:00;100988.88;;;2.11;94.95
43147;BME280;28752;48.266;7.402;2023-01-25T02:17:31;100986.03;;;2.19;94.35
43147;BME280;28752;48.266;7.402;2023-01-25T02:22:46;100976.84;;;2.07;95.17
43147;BME280;28752;48.266;7.402;2023-01-25T02:25:16;100981.03;;;2.11;94.99
43147;BME280;28752;48.266;7.402;2023-01-25T02:27:47;100946.88;;;1.92;95.17
43147;BME280;28752;48.266;7.402;2023-01-25T02:30:15;100961.16;;;2.07;94.79
43147;BME280;28752;48.266;7.402;2023-01-25T02:32:40;100974.13;;;2.10;94.86
43147;BME280;28752;48.266;7.402;2023-01-25T02:35:06;100965.78;;;1.99;94.93
43147;BME280;28752;48.266;7.402;2023-01-25T02:37:32;100946.19;;;1.87;95.13
43147;BME280;28752;48.266;7.402;2023-01-25T02:39:57;100962.97;;;2.05;94.69
43147;BME280;28752;48.266;7.402;2023-01-25T02:42:23;100968.25;;;2.03;94.51
43147;BME280;28752;48.266;7.402;2023-01-25T02:44:49;100962.78;;;2.09;94.70
43147;BME280;28752;48.266;7.402;2023-01-25T02:47:15;100951.44;;;2.10;94.58
43147;BME280;28752;48.266;7.402;2023-01-25T02:49:40;100953.44;;;2.04;94.49
43147;BME280;28752;48.266;7.402;2023-01-25T02:52:06;100960.06;;;2.12;94.15
43147;BME280;28752;48.266;7.402;2023-01-25T02:54:31;100964.72;;;2.04;94.17
43147;BME280;28752;48.266;7.402;2023-01-25T02:56:57;100960.13;;;2.11;94.25
43147;BME280;28752;48.266;7.402;2023-01-25T02:59:22;100963.88;;;2.04;94.48
43147;BME280;28752;48.266;7.402;2023-01-25T03:01:48;100965.63;;;2.03;94.52
43147;BME280;28752;48.266;7.402;2023-01-25T03:04:13;100957.00;;;2.01;94.67
43147;BME280;28752;48.266;7.402;2023-01-25T03:06:40;100959.66;;;2.00;94.58
43147;BME280;28752;48.266;7.402;2023-01-25T03:09:07;100953.22;;;2.10;94.24
43147;BME280;28752;48.266;7.402;2023-01-25T03:11:33;100948.59;;;1.93;94.34
43147;BME280;28752;48.266;7.402;2023-01-25T03:13:59;100955.22;;;2.02;94.50
43147;BME280;28752;48.266;7.402;2023-01-25T03:16:24;100955.22;;;2.02;94.50
43147;BME280;28752;48.266;7.402;2023-01-25T03:18:54;100960.34;;;2.05;94.36
43147;BME280;28752;48.266;7.402;2023-01-25T03:21:21;100944.94;;;1.97;94.41
43147;BME280;28752;48.266;7.402;2023-01-25T03:23:52;100947.78;;;1.91;95.07
43147;BME280;28752;48.266;7.402;2023-01-25T03:26:20;100947.38;;;2.02;94.64
43147;BME280;28752;48.266;7.402;2023-01-25T03:28:46;100944.88;;;1.99;94.39
43147;BME280;28752;48.266;7.402;2023-01-25T03:31:13;100948.09;;;2.07;94.14
43147;BME280;28752;48.266;7.402;2023-01-25T03:33:39;100949.00;;;2.06;94.48
43147;BME280;28752;48.266;7.402;2023-01-25T03:36:05;100945.38;;;2.10;94.21
43147;BME280;28752;48.266;7.402;2023-01-25T03:38:31;100898.25;;;1.88;93.65
43147;BME280;28752;48.266;7.402;2023-01-25T03:40:56;100936.59;;;2.11;94.05
43147;BME280;28752;48.266;7.402;2023-01-25T03:43:22;100940.38;;;2.04;94.39
43147;BME280;28752;48.266;7.402;2023-01-25T03:45:52;100918.19;;;1.90;94.57
43147;BME280;28752;48.266;7.402;2023-01-25T03:48:18;100920.25;;;2.06;93.98
43147;BME280;28752;48.266;7.402;2023-01-25T03:50:50;100929.81;;;2.07;94.13
43147;BME280;28752;48.266;7.402;2023-01-25T03:53:17;100917.88;;;2.00;94.19
43147;BME280;28752;48.266;7.402;2023-01-25T03:56:04;100923.38;;;2.16;94.11
43147;BME280;28752;48.266;7.402;2023-01-25T03:58:32;100917.53;;;2.09;94.11
43147;BME280;28752;48.266;7.402;2023-01-25T04:00:59;100906.00;;;2.15;93.77
43147;BME280;28752;48.266;7.402;2023-01-25T04:03:25;100911.56;;;2.05;94.00
43147;BME280;28752;48.266;7.402;2023-01-25T04:05:52;100911.53;;;2.07;94.25
43147;BME280;28752;48.266;7.402;2023-01-25T04:08:17;100908.31;;;1.99;94.27
43147;BME280;28752;48.266;7.402;2023-01-25T04:10:43;100909.03;;;2.04;94.31
43147;BME280;28752;48.266;7.402;2023-01-25T04:13:09;100909.91;;;2.03;94.45
43147;BME280;28752;48.266;7.402;2023-01-25T04:15:35;100904.41;;;2.10;94.16
43147;BME280;28752;48.266;7.402;2023-01-25T04:18:00;100904.00;;;1.98;94.36
43147;BME280;28752;48.266;7.402;2023-01-25T04:20:25;100899.53;;;2.01;94.52
43147;BME280;28752;48.266;7.402;2023-01-25T04:22:51;100909.97;;;2.01;94.59
43147;BME280;28752;48.266;7.402;2023-01-25T04:25:16;100913.31;;;2.05;94.32
43147;BME280;28752;48.266;7.402;2023-01-25T04:27:42;100907.25;;;2.04;94.10
43147;BME280;28752;48.266;7.402;2023-01-25T04:30:08;100884.13;;;1.93;94.23
43147;BME280;28752;48.266;7.402;2023-01-25T04:32:34;100905.59;;;2.02;94.15
43147;BME280;28752;48.266;7.402;2023-01-25T04:35:00;100907.03;;;2.10;93.99
43147;BME280;28752;48.266;7.402;2023-01-25T04:37:25;100881.09;;;1.81;94.72
43147;BME280;28752;48.266;7.402;2023-01-25T04:39:50;100903.03;;;2.00;94.47
43147;BME280;28752;48.266;7.402;2023-01-25T04:42:16;100911.78;;;1.99;94.70
43147;BME280;28752;48.266;7.402;2023-01-25T04:44:41;100899.00;;;1.91;94.90
43147;BME280;28752;48.266;7.402;2023-01-25T04:47:06;100884.28;;;1.89;94.75
43147;BME280;28752;48.266;7.402;2023-01-25T04:49:32;100911.78;;;1.99;95.06
43147;BME280;28752;48.266;7.402;2023-01-25T04:51:57;100897.97;;;1.95;94.86
43147;BME280;28752;48.266;7.402;2023-01-25T04:54:22;100904.06;;;1.96;94.92
43147;BME280;28752;48.266;7.402;2023-01-25T04:56:48;100899.00;;;1.91;95.24
43147;BME280;28752;48.266;7.402;2023-01-25T04:59:13;100874.13;;;1.81;94.79
43147;BME280;28752;48.266;7.402;2023-01-25T05:01:38;100896.22;;;1.96;94.83
43147;BME280;28752;48.266;7.402;2023-01-25T05:04:04;100890.25;;;1.92;95.17
43147;BME280;28752;48.266;7.402;2023-01-25T05:06:29;100910.81;;;2.02;94.90
43147;BME280;28752;48.266;7.402;2023-01-25T05:08:54;100872.88;;;1.91;94.69
43147;BME280;28752;48.266;7.402;2023-01-25T05:11:20;100888.56;;;1.91;94.97
43147;BME280;28752;48.266;7.402;2023-01-25T05:13:45;100884.41;;;1.86;95.19
43147;BME280;28752;48.266;7.402;2023-01-25T05:16:10;100868.66;;;1.87;95.11
43147;BME280;28752;48.266;7.402;2023-01-25T05:18:36;100879.63;;;1.97;95.03
43147;BME280;28752;48.266;7.402;2023-01-25T05:21:01;100879.75;;;1.94;95.10
43147;BME280;28752;48.266;7.402;2023-01-25T05:23:27;100891.84;;;1.97;95.12
43147;BME280;28752;48.266;7.402;2023-01-25T05:25:52;100862.75;;;1.82;94.72
43147;BME280;28752;48.266;7.402;2023-01-25T05:28:36;100878.00;;;1.94;94.94
43147;BME280;28752;48.266;7.402;2023-01-25T05:31:05;100874.56;;;1.92;95.16
43147;BME280;28752;48.266;7.402;2023-01-25T05:33:30;100881.28;;;2.00;94.81
43147;BME280;28752;48.266;7.402;2023-01-25T05:35:56;100858.16;;;1.89;94.80
43147;BME280;28752;48.266;7.402;2023-01-25T05:38:23;100886.41;;;2.03;94.99
43147;BME280;28752;48.266;7.402;2023-01-25T05:40:48;100893.50;;;1.99;95.02
43147;BME280;28752;48.266;7.402;2023-01-25T05:43:14;100889.06;;;2.01;94.78
43147;BME280;28752;48.266;7.402;2023-01-25T05:45:39;100882.47;;;1.91;94.89
43147;BME280;28752;48.266;7.402;2023-01-25T05:48:05;100880.50;;;1.98;95.04
43147;BME280;28752;48.266;7.402;2023-01-25T05:50:30;100885.25;;;1.86;95.50
43147;BME280;28752;48.266;7.402;2023-01-25T05:52:55;100883.34;;;1.91;95.73
43147;BME280;28752;48.266;7.402;2023-01-25T05:55:21;100880.03;;;1.86;96.16
43147;BME280;28752;48.266;7.402;2023-01-25T05:57:46;100871.50;;;1.81;96.35
43147;BME280;28752;48.266;7.402;2023-01-25T06:00:12;100875.75;;;1.84;96.28
43147;BME280;28752;48.266;7.402;2023-01-25T06:02:38;100879.28;;;1.83;96.22
43147;BME280;28752;48.266;7.402;2023-01-25T06:05:03;100879.06;;;1.89;96.20
43147;BME280;28752;48.266;7.402;2023-01-25T06:07:33;100872.13;;;1.88;96.13
43147;BME280;28752;48.266;7.402;2023-01-25T06:10:00;100864.69;;;1.77;96.35
43147;BME280;28752;48.266;7.402;2023-01-25T06:12:25;100869.78;;;1.80;96.32
43147;BME280;28752;48.266;7.402;2023-01-25T06:14:52;100855.56;;;1.64;96.76
43147;BME280;28752;48.266;7.402;2023-01-25T06:17:18;100874.19;;;1.80;96.90
43147;BME280;28752;48.266;7.402;2023-01-25T06:19:43;100872.47;;;1.78;96.83
43147;BME280;28752;48.266;7.402;2023-01-25T06:22:09;100878.63;;;1.76;97.02
43147;BME280;28752;48.266;7.402;2023-01-25T06:24:34;100873.31;;;1.79;97.01
43147;BME280;28752;48.266;7.402;2023-01-25T06:26:59;100891.63;;;1.77;96.95
43147;BME280;28752;48.266;7.402;2023-01-25T06:29:25;100881.94;;;1.81;96.98
43147;BME280;28752;48.266;7.402;2023-01-25T06:31:50;100857.84;;;1.73;96.83
43147;BME280;28752;48.266;7.402;2023-01-25T06:34:15;100878.53;;;1.79;97.04
43147;BME280;28752;48.266;7.402;2023-01-25T06:36:41;100874.34;;;1.75;97.51
43147;BME280;28752;48.266;7.402;2023-01-25T06:39:06;100873.47;;;1.74;97.36
43147;BME280;28752;48.266;7.402;2023-01-25T06:41:32;100850.19;;;1.68;97.51
43147;BME280;28752;48.266;7.402;2023-01-25T06:43:57;100870.13;;;1.71;97.57
43147;BME280;28752;48.266;7.402;2023-01-25T06:46:22;100862.44;;;1.66;97.44
43147;BME280;28752;48.266;7.402;2023-01-25T06:48:48;100868.50;;;1.67;97.52
43147;BME280;28752;48.266;7.402;2023-01-25T06:51:14;100878.56;;;1.77;97.47
43147;BME280;28752;48.266;7.402;2023-01-25T06:53:40;100885.63;;;1.75;97.58
43147;BME280;28752;48.266;7.402;2023-01-25T06:56:11;100882.38;;;1.69;97.87
43147;BME280;28752;48.266;7.402;2023-01-25T06:58:38;100871.63;;;1.78;97.41
43147;BME280;28752;48.266;7.402;2023-01-25T07:01:12;100873.94;;;1.60;98.08
43147;BME280;28752;48.266;7.402;2023-01-25T07:03:38;100877.06;;;1.72;98.09
43147;BME280;28752;48.266;7.402;2023-01-25T07:06:05;100885.78;;;1.71;97.79
43147;BME280;28752;48.266;7.402;2023-01-25T07:08:31;100868.41;;;1.70;98.07
43147;BME280;28752;48.266;7.402;2023-01-25T07:11:02;100868.25;;;1.74;97.98
43147;BME280;28752;48.266;7.402;2023-01-25T07:13:28;100872.78;;;1.69;97.92
43147;BME280;28752;48.266;7.402;2023-01-25T07:15:56;100859.63;;;1.72;97.88
43147;BME280;28752;48.266;7.402;2023-01-25T07:18:22;100862.44;;;1.66;97.69
43147;BME280;28752;48.266;7.402;2023-01-25T07:20:48;100877.38;;;1.63;98.20
43147;BME280;28752;48.266;7.402;2023-01-25T07:23:13;100868.34;;;1.71;98.06
43147;BME280;28752;48.266;7.402;2023-01-25T07:25:46;100857.69;;;1.77;97.66
43147;BME280;28752;48.266;7.402;2023-01-25T07:28:12;100857.63;;;1.79;97.44
43147;BME280;28752;48.266;7.402;2023-01-25T07:30:39;100860.19;;;1.81;97.29
43147;BME280;28752;48.266;7.402;2023-01-25T07:33:05;100854.00;;;1.83;97.25
43147;BME280;28752;48.266;7.402;2023-01-25T07:35:31;100851.56;;;1.78;97.38
43147;BME280;28752;48.266;7.402;2023-01-25T07:37:57;100845.44;;;1.80;97.52
43147;BME280;28752;48.266;7.402;2023-01-25T07:40:22;100844.50;;;1.81;97.12
43147;BME280;28752;48.266;7.402;2023-01-25T07:42:52;100837.22;;;1.90;96.77
43147;BME280;28752;48.266;7.402;2023-01-25T07:45:17;100842.31;;;1.93;96.46
43147;BME280;28752;48.266;7.402;2023-01-25T07:47:43;100840.94;;;1.83;97.04
43147;BME280;28752;48.266;7.402;2023-01-25T07:50:09;100843.50;;;1.85;96.65
43147;BME280;28752;48.266;7.402;2023-01-25T07:52:35;100810.63;;;1.79;96.47
43147;BME280;28752;48.266;7.402;2023-01-25T07:55:00;100826.72;;;1.92;96.10
43147;BME280;28752;48.266;7.402;2023-01-25T07:57:25;100825.97;;;1.88;95.93
43147;BME280;28752;48.266;7.402;2023-01-25T07:59:53;100843.59;;;2.07;95.93
43147;BME280;28752;48.266;7.402;2023-01-25T08:02:18;100849.03;;;2.01;95.15
43147;BME280;28752;48.266;7.402;2023-01-25T08:04:43;100835.16;;;1.99;95.85
43147;BME280;28752;48.266;7.402;2023-01-25T08:07:10;100848.00;;;2.05;95.37
43147;BME280;28752;48.266;7.402;2023-01-25T08:09:35;100851.53;;;2.04;95.50
43147;BME280;28752;48.266;7.402;2023-01-25T08:12:01;100852.16;;;2.10;95.18
43147;BME280;28752;48.266;7.402;2023-01-25T08:14:26;100841.31;;;1.98;95.11
43147;BME280;28752;48.266;7.402;2023-01-25T08:16:52;100852.50;;;2.01;95.29
43147;BME280;28752;48.266;7.402;2023-01-25T08:19:17;100840.91;;;2.08;94.91
43147;BME280;28752;48.266;7.402;2023-01-25T08:21:44;100853.34;;;2.02;95.75
43147;BME280;28752;48.266;7.402;2023-01-25T08:24:10;100849.66;;;2.07;95.30
43147;BME280;28752;48.266;7.402;2023-01-25T08:26:36;100860.16;;;2.06;95.59
43147;BME280;28752;48.266;7.402;2023-01-25T08:29:02;100834.75;;;2.09;95.02
43147;BME280;28752;48.266;7.402;2023-01-25T08:31:29;100848.28;;;2.21;95.21
43147;BME280;28752;48.266;7.402;2023-01-25T08:33:55;100848.22;;;2.22;94.44
43147;BME280;28752;48.266;7.402;2023-01-25T08:36:22;100845.50;;;2.25;94.80
43147;BME280;28752;48.266;7.402;2023-01-25T08:38:59;100843.25;;;2.16;94.71
43147;BME280;28752;48.266;7.402;2023-01-25T08:41:26;100849.19;;;2.20;94.43
43147;BME280;28752;48.266;7.402;2023-01-25T08:43:53;100848.22;;;2.22;94.74
43147;BME280;28752;48.266;7.402;2023-01-25T08:46:20;100846.03;;;2.11;94.86
43147;BME280;28752;48.266;7.402;2023-01-25T08:48:46;100836.25;;;2.17;95.01
43147;BME280;28752;48.266;7.402;2023-01-25T08:51:14;100833.44;;;2.21;94.65
43147;BME280;28752;48.266;7.402;2023-01-25T08:53:40;100829.81;;;2.25;94.39
43147;BME280;28752;48.266;7.402;2023-01-25T08:56:08;100834.56;;;2.38;94.40
43147;BME280;28752;48.266;7.402;2023-01-25T08:58:36;100835.59;;;2.34;94.21
43147;BME280;28752;48.266;7.402;2023-01-25T09:01:07;100833.84;;;2.34;94.24
43147;BME280;28752;48.266;7.402;2023-01-25T09:03:37;100829.22;;;2.41;93.70
43147;BME280;28752;48.266;7.402;2023-01-25T09:06:04;100835.06;;;2.25;94.24
43147;BME280;28752;48.266;7.402;2023-01-25T09:08:29;100831.41;;;2.29;94.69
43147;BME280;28752;48.266;7.402;2023-01-25T09:11:02;100831.25;;;2.34;94.23
43147;BME280;28752;48.266;7.402;2023-01-25T09:13:28;100820.50;;;2.42;93.95
43147;BME280;28752;48.266;7.402;2023-01-25T09:16:07;100823.41;;;2.34;93.78
43147;BME280;28752;48.266;7.402;2023-01-25T09:18:35;100809.28;;;2.16;94.41
43147;BME280;28752;48.266;7.402;2023-01-25T09:21:12;100814.81;;;2.30;94.45
43147;BME280;28752;48.266;7.402;2023-01-25T09:23:38;100815.44;;;2.37;93.96
43147;BME280;28752;48.266;7.402;2023-01-25T09:26:03;100801.50;;;2.37;93.37
43147;BME280;28752;48.266;7.402;2023-01-25T09:28:30;100804.91;;;2.39;93.91
43147;BME280;28752;48.266;7.402;2023-01-25T09:30:58;100803.50;;;2.30;93.69
43147;BME280;28752;48.266;7.402;2023-01-25T09:33:28;100818.94;;;2.36;94.16
43147;BME280;28752;48.266;7.402;2023-01-25T09:35:53;100812.88;;;2.36;93.99
43147;BME280;28752;48.266;7.402;2023-01-25T09:38:19;100813.53;;;2.19;94.83
43147;BME280;28752;48.266;7.402;2023-01-25T09:41:33;100781.53;;;2.12;94.18
43147;BME280;28752;48.266;7.402;2023-01-25T09:46:41;100821.22;;;2.45;94.21
43147;BME280;28752;48.266;7.402;2023-01-25T09:54:46;100830.50;;;2.30;94.13
43147;BME280;28752;48.266;7.402;2023-01-25T09:57:18;100817.78;;;2.21;94.78
43147;BME280;28752;48.266;7.402;2023-01-25T09:59:48;100828.97;;;2.25;95.14
43147;BME280;28752;48.266;7.402;2023-01-25T10:05:20;100813.97;;;2.30;94.54
43147;BME280;28752;48.266;7.402;2023-01-25T10:10:40;100814.69;;;2.34;94.27
43147;BME280;28752;48.266;7.402;2023-01-25T10:13:17;100806.66;;;2.38;93.78
43147;BME280;28752;48.266;7.402;2023-01-25T10:15:51;100807.38;;;2.20;94.07
43147;BME280;28752;48.266;7.402;2023-01-25T10:18:32;100807.84;;;2.31;94.74
43147;BME280;28752;48.266;7.402;2023-01-25T10:21:06;100817.56;;;2.49;93.97
43147;BME280;28752;48.266;7.402;2023-01-25T10:26:32;100814.88;;;2.29;94.03
43147;BME280;28752;48.266;7.402;2023-01-25T10:33:58;100789.84;;;2.45;92.63
43147;BME280;28752;48.266;7.402;2023-01-25T10:36:28;100812.28;;;2.51;92.42
43147;BME280;28752;48.266;7.402;2023-01-25T10:38:55;100796.34;;;2.57;92.62
43147;BME280;28752;48.266;7.402;2023-01-25T10:41:33;100790.59;;;2.49;93.09
43147;BME280;28752;48.266;7.402;2023-01-25T10:44:00;100781.81;;;2.50;92.55
43147;BME280;28752;48.266;7.402;2023-01-25T10:46:55;100795.44;;;2.58;92.32
43147;BME280;28752;48.266;7.402;2023-01-25T10:49:52;100785.22;;;2.52;92.90
43147;BME280;28752;48.266;7.402;2023-01-25T10:52:17;100782.91;;;2.66;92.44
43147;BME280;28752;48.266;7.402;2023-01-25T10:54:44;100782.63;;;2.52;92.60
43147;BME280;28752;48.266;7.402;2023-01-25T10:57:16;100782.13;;;2.64;92.26
43147;BME280;28752;48.266;7.402;2023-01-25T10:59:49;100778.56;;;2.65;92.05
43147;BME280;28752;48.266;7.402;2023-01-25T11:04:53;100772.69;;;2.60;91.77
43147;BME280;28752;48.266;7.402;2023-01-25T11:07:27;100755.00;;;2.45;91.86
43147;BME280;28752;48.266;7.402;2023-01-25T11:09:54;100765.63;;;2.62;91.58
43147;BME280;28752;48.266;7.402;2023-01-25T11:12:20;100769.94;;;2.63;91.38
43147;BME280;28752;48.266;7.402;2023-01-25T11:14:47;100760.38;;;2.62;91.26
43147;BME280;28752;48.266;7.402;2023-01-25T11:17:22;100751.31;;;2.51;90.84
43147;BME280;28752;48.266;7.402;2023-01-25T11:20:04;100751.91;;;2.57;91.07
43147;BME280;28752;48.266;7.402;2023-01-25T11:22:31;100749.09;;;2.62;91.01
43147;BME280;28752;48.266;7.402;2023-01-25T11:24:56;100725.88;;;2.32;91.43
43147;BME280;28752;48.266;7.402;2023-01-25T11:27:24;100743.16;;;2.58;90.86
43147;BME280;28752;48.266;7.402;2023-01-25T11:30:10;100756.09;;;2.61;90.56
43147;BME280;28752;48.266;7.402;2023-01-25T11:32:39;100747.69;;;2.53;91.22
43147;BME280;28752;48.266;7.402;2023-01-25T11:35:11;100735.38;;;2.57;91.23
43147;BME280;28752;48.266;7.402;2023-01-25T11:40:40;100732.50;;;2.63;91.38
43147;BME280;28752;48.266;7.402;2023-01-25T11:51:03;100725.63;;;2.60;91.10
43147;BME280;28752;48.266;7.402;2023-01-25T11:56:59;100711.50;;;2.64;89.28
43147;BME280;28752;48.266;7.402;2023-01-25T12:07:45;100690.03;;;2.56;89.50
43147;BME280;28752;48.266;7.402;2023-01-25T12:10:21;100671.41;;;2.64;88.82
43147;BME280;28752;48.266;7.402;2023-01-25T12:18:41;100660.69;;;2.49;88.47
43147;BME280;28752;48.266;7.402;2023-01-25T12:26:28;100654.94;;;2.62;88.46
43147;BME280;28752;48.266;7.402;2023-01-25T12:31:43;100638.34;;;2.63;86.95
43147;BME280;28752;48.266;7.402;2023-01-25T12:34:18;100640.03;;;2.64;86.92
43147;BME280;28752;48.266;7.402;2023-01-25T12:36:47;100632.25;;;2.62;87.18
43147;BME280;28752;48.266;7.402;2023-01-25T12:39:27;100622.94;;;2.57;87.00
43147;BME280;28752;48.266;7.402;2023-01-25T12:49:58;100609.78;;;2.58;86.95
43147;BME280;28752;48.266;7.402;2023-01-25T12:52:34;100602.44;;;2.66;87.04
43147;BME280;28752;48.266;7.402;2023-01-25T12:55:02;100583.91;;;2.52;86.49
43147;BME280;28752;48.266;7.402;2023-01-25T12:57:38;100596.59;;;2.80;86.44
43147;BME280;28752;48.266;7.402;2023-01-25T13:00:18;100593.63;;;2.69;86.29
43147;BME280;28752;48.266;7.402;2023-01-25T13:02:59;100594.03;;;2.60;87.51
43147;BME280;28752;48.266;7.402;2023-01-25T13:11:07;100583.50;;;2.61;88.12
43147;BME280;28752;48.266;7.402;2023-01-25T13:13:34;100573.13;;;2.60;87.66
43147;BME280;28752;48.266;7.402;2023-01-25T13:18:50;100580.56;;;2.48;87.64
43147;BME280;28752;48.266;7.402;2023-01-25T13:32:03;100566.50;;;2.30;89.41
43147;BME280;28752;48.266;7.402;2023-01-25T13:39:51;100533.38;;;2.10;89.92
43147;BME280;28752;48.266;7.402;2023-01-25T13:42:21;100562.22;;;2.29;89.66
43147;BME280;28752;48.266;7.402;2023-01-25T13:45:17;100562.22;;;2.29;89.79
43147;BME280;28752;48.266;7.402;2023-01-25T13:47:58;100562.22;;;2.29;89.67
43147;BME280;28752;48.266;7.402;2023-01-25T13:50:26;100559.91;;;2.22;89.92
43147;BME280;28752;48.266;7.402;2023-01-25T13:53:01;100558.47;;;2.35;89.62
43147;BME280;28752;48.266;7.402;2023-01-25T13:55:28;100556.78;;;2.34;89.09
43147;BME280;28752;48.266;7.402;2023-01-25T13:58:07;100559.13;;;2.40;88.55
43147;BME280;28752;48.266;7.402;2023-01-25T14:00:33;100534.09;;;2.35;87.82
43147;BME280;28752;48.266;7.402;2023-01-25T14:02:58;100538.47;;;2.34;87.74
43147;BME280;28752;48.266;7.402;2023-01-25T14:05:24;100540.22;;;2.34;88.02
43147;BME280;28752;48.266;7.402;2023-01-25T14:07:53;100535.53;;;2.42;87.61
43147;BME280;28752;48.266;7.402;2023-01-25T14:10:24;100531.97;;;2.43;87.62
43147;BME280;28752;48.266;7.402;2023-01-25T14:12:53;100526.81;;;2.41;87.54
43147;BME280;28752;48.266;7.402;2023-01-25T14:15:25;100528.38;;;2.26;88.24
43147;BME280;28752;48.266;7.402;2023-01-25T14:18:16;100525.84;;;2.44;87.31
43147;BME280;28752;48.266;7.402;2023-01-25T14:20:44;100530.44;;;2.39;87.12
43147;BME280;28752;48.266;7.402;2023-01-25T14:23:39;100514.81;;;2.37;86.98
43147;BME280;28752;48.266;7.402;2023-01-25T14:26:16;100520.63;;;2.44;87.17
43147;BME280;28752;48.266;7.402;2023-01-25T14:28:44;100514.41;;;2.46;86.60
43147;BME280;28752;48.266;7.402;2023-01-25T14:31:22;100517.25;;;2.42;85.83
43147;BME280;28752;48.266;7.402;2023-01-25T14:33:48;100508.78;;;2.35;86.46
43147;BME280;28752;48.266;7.402;2023-01-25T14:36:19;100521.28;;;2.28;86.48
43147;BME280;28752;48.266;7.402;2023-01-25T14:38:44;100519.72;;;2.45;86.71
43147;BME280;28752;48.266;7.402;2023-01-25T14:43:40;100520.25;;;2.33;86.21
43147;BME280;28752;48.266;7.402;2023-01-25T14:46:26;100516.13;;;2.27;87.04
43147;BME280;28752;48.266;7.402;2023-01-25T14:49:24;100505.34;;;2.14;87.51
43147;BME280;28752;48.266;7.402;2023-01-25T14:51:55;100506.41;;;2.10;87.72